Time;durP1;ratioP1;P1;durP2;ratioP2;P2;SDS_P1;SDS_P2;PMS_P1;PMS_P2;Temp;Humidity;BMP_temperature;BMP_pressure;BME280_temperature;BME280_humidity;BME280_pressure;Samples;Min_cycle;Max_cycle;Signal;HPM_P1;HPM_P2
2022/03/05 00:01:56;;;;;;;17.48;7.15;;;;;;;5.91;39.32;101843.97;5073469;28;20064;-73
2022/03/05 00:04:22;;;;;;;14.73;6.57;;;;;;;5.34;40.94;101830.84;5071800;28;20476;-72
2022/03/05 00:06:49;;;;;;;20.10;7.35;;;;;;;5.94;39.82;101831.31;5073212;28;20041;-71
2022/03/05 00:09:19;;;;;;;20.80;7.07;;;;;;;6.28;38.86;101837.03;5069288;28;20536;-72
2022/03/05 00:11:46;;;;;;;19.83;7.30;;;;;;;6.38;38.68;101831.91;5071531;28;20051;-73
2022/03/05 00:14:12;;;;;;;20.67;6.80;;;;;;;6.28;38.86;101841.50;5072939;28;20048;-71
2022/03/05 00:16:39;;;;;;;14.10;6.32;;;;;;;6.42;38.84;101836.91;5072288;28;20499;-71
2022/03/05 00:19:05;;;;;;;17.17;6.57;;;;;;;6.59;38.26;101837.56;5070856;28;20052;-72
2022/03/05 00:21:32;;;;;;;17.65;6.72;;;;;;;6.48;38.55;101843.66;5073150;28;20471;-72
2022/03/05 00:23:58;;;;;;;21.48;6.50;;;;;;;6.02;39.49;101835.25;5073367;28;20048;-72
2022/03/05 00:26:25;;;;;;;24.77;6.80;;;;;;;6.07;39.45;101836.63;5073222;28;20074;-72
2022/03/05 00:28:51;;;;;;;16.60;6.53;;;;;;;6.03;39.45;101827.16;5073276;28;20127;-72
2022/03/05 00:31:18;;;;;;;19.42;6.50;;;;;;;6.32;39.08;101840.31;5073475;28;20563;-72
2022/03/05 00:33:45;;;;;;;16.55;6.53;;;;;;;6.42;38.69;101838.75;5072692;28;20075;-73
2022/03/05 00:36:11;;;;;;;16.55;6.97;;;;;;;6.38;38.87;101837.25;5072738;28;20139;-73
2022/03/05 00:38:38;;;;;;;16.85;6.43;;;;;;;6.23;39.10;101831.97;5073085;28;20547;-72
2022/03/05 00:41:04;;;;;;;19.48;6.90;;;;;;;6.07;39.72;101833.13;5067909;28;20044;-72
2022/03/05 00:43:31;;;;;;;16.73;6.45;;;;;;;6.16;39.49;101835.19;5071776;28;20123;-72
2022/03/05 00:45:57;;;;;;;19.58;6.97;;;;;;;6.43;38.97;101832.47;5072081;28;20132;-73
2022/03/05 00:48:24;;;;;;;18.40;7.65;;;;;;;6.23;39.04;101821.31;5073050;28;20111;-72
2022/03/05 00:50:50;;;;;;;21.23;7.75;;;;;;;5.87;39.72;101834.47;5068345;28;20051;-72
2022/03/05 00:53:18;;;;;;;19.23;7.07;;;;;;;6.21;39.30;101825.91;5071722;28;20072;-72
2022/03/05 00:55:44;;;;;;;16.30;6.38;;;;;;;6.18;39.32;101831.47;5071773;28;20063;-73
2022/03/05 00:58:11;;;;;;;21.73;7.03;;;;;;;5.95;39.62;101825.00;5071366;28;20081;-73
2022/03/05 01:00:37;;;;;;;18.40;6.85;;;;;;;6.19;39.45;101830.50;5072266;28;20135;-73
2022/03/05 01:03:04;;;;;;;22.08;6.55;;;;;;;6.37;39.02;101835.56;5068602;28;20040;-73
2022/03/05 01:05:31;;;;;;;17.15;6.13;;;;;;;6.47;38.82;101833.97;5072261;28;20048;-73
2022/03/05 01:07:58;;;;;;;22.77;7.22;;;;;;;6.33;39.10;101829.59;5071913;28;20075;-73
2022/03/05 01:10:24;;;;;;;21.63;7.15;;;;;;;6.28;39.11;101830.84;5070388;28;20419;-73
2022/03/05 01:12:51;;;;;;;16.05;6.20;;;;;;;6.36;38.95;101829.38;5071281;28;20473;-73
2022/03/05 01:15:17;;;;;;;18.13;6.70;;;;;;;6.33;38.97;101832.25;5060560;28;20059;-73
2022/03/05 01:17:44;;;;;;;13.43;5.65;;;;;;;6.21;39.28;101836.56;5070343;28;20227;-73
2022/03/05 01:20:11;;;;;;;17.65;6.30;;;;;;;6.13;39.37;101836.22;5071511;28;20064;-73
2022/03/05 01:22:37;;;;;;;18.77;6.43;;;;;;;6.08;39.21;101832.16;5063698;28;20074;-73
2022/03/05 01:25:05;;;;;;;20.52;6.65;;;;;;;5.58;40.63;101831.91;5071421;28;20132;-73
2022/03/05 01:27:31;;;;;;;14.45;6.03;;;;;;;5.96;40.06;101832.03;5072452;28;20045;-72
2022/03/05 01:29:57;;;;;;;21.13;6.90;;;;;;;5.89;40.03;101832.56;5072274;28;20127;-72
2022/03/05 01:32:24;;;;;;;23.77;6.38;;;;;;;5.93;40.08;101826.91;5072546;28;20045;-72
2022/03/05 01:34:50;;;;;;;18.70;5.72;;;;;;;6.00;39.89;101832.69;5072190;28;20047;-72
2022/03/05 01:37:17;;;;;;;22.67;6.75;;;;;;;6.00;39.90;101822.88;5071757;28;22831;-72
2022/03/05 01:39:43;;;;;;;16.63;6.10;;;;;;;5.91;40.15;101820.00;5072508;28;20075;-72
2022/03/05 01:42:10;;;;;;;14.13;6.35;;;;;;;5.83;40.19;101824.97;5071439;28;20396;-72
2022/03/05 01:44:36;;;;;;;17.80;5.88;;;;;;;6.04;39.79;101820.84;5056628;28;20067;-72
2022/03/05 01:47:05;;;;;;;16.50;5.82;;;;;;;6.13;39.72;101817.59;5071040;28;20140;-72
2022/03/05 01:49:31;;;;;;;13.68;5.82;;;;;;;6.08;39.78;101817.06;5070503;28;20044;-72
2022/03/05 01:51:58;;;;;;;17.30;5.68;;;;;;;6.08;39.80;101808.19;5070409;28;20119;-72
2022/03/05 01:54:25;;;;;;;23.13;6.55;;;;;;;6.03;39.83;101811.16;5071783;28;20071;-72
2022/03/05 01:56:54;;;;;;;16.83;6.80;;;;;;;5.95;40.05;101808.19;5069706;28;20076;-72
2022/03/05 01:59:20;;;;;;;20.27;5.95;;;;;;;5.84;40.52;101811.56;5071335;28;20098;-72
2022/03/05 02:01:49;;;;;;;20.45;6.43;;;;;;;5.95;40.38;101810.84;5070888;28;20080;-72
2022/03/05 02:04:15;;;;;;;11.90;5.68;;;;;;;5.68;40.97;101811.72;5071330;28;20053;-72
2022/03/05 02:07:23;;;;;;;19.05;6.55;;;;;;;5.64;41.11;101812.88;5065043;28;20049;-71
2022/03/05 02:09:51;;;;;;;18.15;6.68;;;;;;;5.76;41.00;101809.41;5070326;28;20052;-71
2022/03/05 02:12:17;;;;;;;14.88;6.10;;;;;;;5.85;40.99;101807.09;5070464;28;20451;-73
2022/03/05 02:14:44;;;;;;;17.83;6.75;;;;;;;5.52;41.23;101805.69;5070407;28;20083;-72
2022/03/05 02:17:10;;;;;;;18.40;6.15;;;;;;;5.72;40.93;101793.75;5069687;28;20064;-72
2022/03/05 02:19:37;;;;;;;16.00;6.40;;;;;;;5.71;40.87;101798.22;5070844;28;20502;-71
2022/03/05 02:22:03;;;;;;;18.52;6.05;;;;;;;5.69;41.34;101802.78;5067183;28;20075;-72
2022/03/05 02:24:33;;;;;;;21.48;6.63;;;;;;;5.63;41.23;101805.88;5070360;28;20132;-71
2022/03/05 02:27:02;;;;;;;14.48;5.97;;;;;;;5.70;40.94;101806.31;5071311;28;20040;-72
2022/03/05 02:29:31;;;;;;;17.20;6.15;;;;;;;5.66;40.86;101802.97;5070649;28;20132;-73
2022/03/05 02:31:57;;;;;;;19.08;5.85;;;;;;;5.64;41.20;101798.72;5071213;28;20060;-73
2022/03/05 02:34:24;;;;;;;19.88;6.57;;;;;;;5.66;41.02;101792.31;5070490;28;20060;-72
2022/03/05 02:36:51;;;;;;;20.33;6.50;;;;;;;5.65;41.07;101798.63;5071394;28;20392;-73
2022/03/05 02:39:17;;;;;;;15.90;6.30;;;;;;;5.61;40.96;101794.47;5069582;28;20102;-73
2022/03/05 02:41:44;;;;;;;15.93;5.97;;;;;;;5.71;41.16;101782.25;5070635;28;20044;-72
2022/03/05 02:44:11;;;;;;;13.15;5.85;;;;;;;5.76;40.99;101781.91;5069818;28;20045;-73
2022/03/05 02:46:37;;;;;;;23.15;6.18;;;;;;;5.70;41.00;101788.53;5061809;28;20131;-73
2022/03/05 02:49:04;;;;;;;17.27;6.57;;;;;;;5.76;40.96;101789.91;5069970;28;20506;-71
2022/03/05 02:51:30;;;;;;;20.48;6.65;;;;;;;5.65;41.50;101792.44;5069625;28;20068;-72
2022/03/05 02:53:57;;;;;;;15.43;6.38;;;;;;;5.72;41.11;101791.91;5071238;28;20083;-71
2022/03/05 02:56:23;;;;;;;18.17;6.68;;;;;;;5.67;41.41;101791.38;5070566;28;20477;-73
2022/03/05 02:58:50;;;;;;;15.02;6.50;;;;;;;5.61;41.40;101797.13;5071521;28;20072;-72
2022/03/05 03:01:16;;;;;;;19.77;7.03;;;;;;;5.72;41.21;101791.91;5070066;28;20425;-72
2022/03/05 03:03:44;;;;;;;15.70;6.03;;;;;;;5.77;41.20;101794.31;5071231;28;20106;-72
2022/03/05 03:06:10;;;;;;;24.35;7.00;;;;;;;5.77;41.09;101794.31;5070177;28;20131;-72
2022/03/05 03:08:37;;;;;;;15.63;6.20;;;;;;;5.66;41.32;101787.00;5071329;28;20128;-72
2022/03/05 03:11:03;;;;;;;21.50;7.90;;;;;;;5.22;42.32;101793.47;5066252;28;20119;-72
2022/03/05 03:13:30;;;;;;;24.70;7.53;;;;;;;4.96;43.13;101791.59;5070511;28;20072;-72
2022/03/05 03:15:56;;;;;;;24.88;7.68;;;;;;;4.99;42.96;101789.59;5069379;28;20072;-71
2022/03/05 03:18:23;;;;;;;22.42;7.68;;;;;;;4.78;43.61;101797.13;5070173;28;20132;-71
2022/03/05 03:20:49;;;;;;;17.45;7.57;;;;;;;4.91;43.56;101794.56;5052591;28;20400;-71
2022/03/05 03:23:16;;;;;;;21.08;7.32;;;;;;;5.18;42.72;101788.41;5074174;28;20044;-71
2022/03/05 03:25:42;;;;;;;18.02;7.55;;;;;;;5.02;43.32;101785.91;5073820;28;20504;-71
2022/03/05 03:28:09;;;;;;;22.75;8.75;;;;;;;5.05;43.56;101778.56;5073449;28;20051;-71
2022/03/05 03:30:35;;;;;;;29.02;10.13;;;;;;;4.75;43.97;101784.03;5072440;28;20044;-71
2022/03/05 03:33:02;;;;;;;26.00;9.20;;;;;;;4.64;44.36;101788.31;5073227;28;20044;-72
2022/03/05 03:35:29;;;;;;;24.80;9.77;;;;;;;4.64;44.58;101797.16;5074628;28;20138;-73
2022/03/05 03:37:55;;;;;;;23.38;9.98;;;;;;;4.68;44.58;101793.34;5074040;28;20136;-72
2022/03/05 03:40:22;;;;;;;29.08;10.77;;;;;;;4.60;44.85;101794.78;5073202;28;20128;-71
2022/03/05 03:42:50;;;;;;;33.10;10.35;;;;;;;4.63;44.98;101795.44;5072816;28;20552;-71
2022/03/05 03:45:18;;;;;;;24.08;9.50;;;;;;;4.44;45.32;101797.50;5070002;28;20148;-72
2022/03/05 03:47:47;;;;;;;22.95;9.52;;;;;;;4.65;44.84;101796.19;5071558;28;20139;-71
2022/03/05 03:50:18;;;;;;;26.27;9.65;;;;;;;4.46;45.21;101798.28;5073993;28;20083;-71
2022/03/05 03:52:45;;;;;;;28.60;10.50;;;;;;;4.68;44.98;101798.66;5072617;28;20048;-71
2022/03/05 03:55:16;;;;;;;23.98;9.63;;;;;;;4.22;46.03;101806.75;5073197;28;20048;-71
2022/03/05 03:57:43;;;;;;;18.55;9.38;;;;;;;4.67;44.99;101802.28;5065368;28;20443;-71
2022/03/05 04:00:13;;;;;;;26.23;9.77;;;;;;;4.61;44.89;101797.31;5073458;28;20127;-71
2022/03/05 04:02:40;;;;;;;23.35;9.02;;;;;;;4.81;44.40;101809.38;5072959;28;20136;-73
2022/03/05 04:05:08;;;;;;;24.95;9.45;;;;;;;4.46;45.00;101806.25;5072254;28;20059;-71
2022/03/05 04:10:21;;;;;;;27.25;9.63;;;;;;;4.37;45.72;101814.75;5072409;28;20441;-71
2022/03/05 04:12:47;;;;;;;26.55;8.70;;;;;;;4.63;45.02;101811.38;5072499;28;20428;-71
2022/03/05 04:15:14;;;;;;;21.45;8.50;;;;;;;4.52;45.11;101808.50;5072791;28;20484;-72
2022/03/05 04:17:40;;;;;;;25.52;9.07;;;;;;;4.00;46.46;101812.50;5072916;28;20113;-71
2022/03/05 04:20:07;;;;;;;19.48;8.50;;;;;;;4.12;46.49;101812.72;5073109;28;20060;-71
2022/03/05 04:22:34;;;;;;;28.98;8.93;;;;;;;4.29;45.65;101813.41;5067625;28;20131;-71
2022/03/05 04:25:02;;;;;;;24.27;7.80;;;;;;;4.24;45.54;101811.97;5067500;28;20095;-72
2022/03/05 04:27:28;;;;;;;23.27;8.93;;;;;;;4.24;46.11;101815.50;5071581;28;20127;-71
2022/03/05 04:29:55;;;;;;;22.00;8.65;;;;;;;4.27;45.73;101815.28;5070517;28;20135;-70
2022/03/05 04:32:21;;;;;;;23.27;8.27;;;;;;;4.27;46.06;101817.94;5072369;28;20067;-71
2022/03/05 04:34:47;;;;;;;20.42;8.00;;;;;;;4.61;45.13;101817.75;5073557;28;20484;-71
2022/03/05 04:37:14;;;;;;;18.65;9.27;;;;;;;4.36;45.79;101816.56;5072538;28;20049;-71
2022/03/05 04:39:40;;;;;;;20.23;8.32;;;;;;;3.86;46.53;101820.41;5072793;28;20131;-71
2022/03/05 04:42:07;;;;;;;19.45;9.25;;;;;;;4.34;46.07;101824.59;5072900;28;20083;-72
2022/03/05 04:44:34;;;;;;;28.02;8.73;;;;;;;4.51;45.20;101822.75;5073373;28;20163;-71
2022/03/05 04:47:01;;;;;;;19.17;8.73;;;;;;;4.25;45.91;101827.84;5072731;28;20378;-72
2022/03/05 04:49:27;;;;;;;25.75;8.32;;;;;;;4.12;45.99;101824.19;5072204;28;20121;-70
2022/03/05 04:51:54;;;;;;;21.67;9.15;;;;;;;4.05;45.96;101826.34;5071464;28;20044;-71
2022/03/05 04:54:20;;;;;;;22.48;8.77;;;;;;;3.97;46.52;101830.44;5071237;28;20131;-70
2022/03/05 04:56:46;;;;;;;21.25;8.75;;;;;;;4.48;45.09;101826.44;5071705;28;20382;-70
2022/03/05 04:59:13;;;;;;;30.92;9.05;;;;;;;3.74;46.44;101826.44;5072730;28;20128;-71
2022/03/05 05:01:40;;;;;;;22.60;9.07;;;;;;;4.07;46.50;101824.47;5072329;28;20503;-71
2022/03/05 05:04:07;;;;;;;23.42;8.82;;;;;;;3.76;47.06;101830.72;5071280;28;20473;-70
2022/03/05 05:06:33;;;;;;;27.70;9.55;;;;;;;3.23;48.04;101839.91;5072166;28;20044;-71
2022/03/05 05:09:00;;;;;;;21.85;9.50;;;;;;;2.95;49.03;101837.09;5071785;28;20072;-71
2022/03/05 05:11:27;;;;;;;22.02;9.43;;;;;;;3.11;48.85;101843.25;5071622;28;20167;-71
2022/03/05 05:13:53;;;;;;;31.15;10.57;;;;;;;2.99;49.06;101834.16;5070484;28;20483;-71
2022/03/05 05:16:19;;;;;;;30.05;10.77;;;;;;;2.79;49.45;101837.91;5070743;28;20408;-70
2022/03/05 05:21:31;;;;;;;22.67;10.32;;;;;;;2.91;49.25;101845.19;5070892;28;20441;-70
2022/03/05 05:23:57;;;;;;;32.72;10.38;;;;;;;3.14;48.33;101845.75;5070342;28;20048;-70
2022/03/05 05:26:24;;;;;;;22.63;10.27;;;;;;;3.25;47.88;101846.00;5071464;28;20550;-71
2022/03/05 05:28:50;;;;;;;24.10;9.80;;;;;;;3.11;47.95;101843.25;5071284;28;20459;-70
2022/03/05 05:31:17;;;;;;;30.48;11.15;;;;;;;3.32;47.93;101842.06;5057587;28;20064;-70
2022/03/05 05:33:45;;;;;;;23.65;11.10;;;;;;;3.06;48.36;101842.66;5048311;28;20053;-71
2022/03/05 05:36:13;;;;;;;29.45;9.68;;;;;;;3.01;48.36;101847.34;5052513;28;20094;-70
2022/03/05 05:38:39;;;;;;;27.98;12.55;;;;;;;2.80;49.08;101849.38;5049712;28;20119;-70
2022/03/05 05:41:07;;;;;;;24.58;10.15;;;;;;;3.29;47.78;101847.53;5050908;28;20411;-71
2022/03/05 05:43:34;;;;;;;28.00;10.55;;;;;;;2.95;48.40;101855.63;5049337;28;20462;-71
2022/03/05 05:46:01;;;;;;;23.77;10.73;;;;;;;3.05;48.40;101855.03;5050582;28;20132;-71
2022/03/05 05:48:47;;;;;;;25.55;10.38;;;;;;;3.20;47.62;101855.13;5051907;28;20045;-71
2022/03/05 05:51:13;;;;;;;36.85;12.57;;;;;;;3.29;47.28;101855.50;5051794;28;20068;-71
2022/03/05 05:53:40;;;;;;;27.20;11.10;;;;;;;2.76;48.44;101855.78;5030603;28;20049;-71
2022/03/05 05:56:06;;;;;;;32.22;11.55;;;;;;;2.75;48.56;101854.91;5051237;28;20391;-71
2022/03/05 05:58:33;;;;;;;30.05;11.68;;;;;;;2.89;48.01;101862.09;5051823;28;20080;-71
2022/03/05 06:00:59;;;;;;;30.17;12.68;;;;;;;2.75;48.39;101857.53;5050286;28;20061;-71
2022/03/05 06:03:27;;;;;;;27.67;11.55;;;;;;;2.89;48.52;101863.00;5050705;28;20044;-71
2022/03/05 06:05:53;;;;;;;32.70;11.98;;;;;;;3.00;47.91;101865.06;5047671;28;20037;-71
2022/03/05 06:08:20;;;;;;;34.05;11.77;;;;;;;3.04;47.86;101866.59;5051100;28;20128;-71
2022/03/05 06:10:46;;;;;;;23.73;10.73;;;;;;;2.85;48.20;101861.41;5050592;28;20094;-70
2022/03/05 06:13:13;;;;;;;22.50;10.85;;;;;;;2.45;48.97;101859.19;5046605;28;20135;-71
2022/03/05 06:15:39;;;;;;;26.52;11.05;;;;;;;2.41;49.59;101869.94;5051321;28;20091;-71
2022/03/05 06:18:06;;;;;;;26.52;11.00;;;;;;;2.37;49.79;101871.03;5049910;28;20128;-71
2022/03/05 06:20:32;;;;;;;29.55;10.82;;;;;;;2.05;50.09;101862.06;5050973;28;20137;-71
2022/03/05 06:22:59;;;;;;;32.83;10.90;;;;;;;2.13;49.93;101875.78;5051620;28;20123;-71
2022/03/05 06:25:25;;;;;;;29.23;11.38;;;;;;;2.50;49.30;101880.97;5060895;28;20044;-70
2022/03/05 06:27:51;;;;;;;29.33;11.15;;;;;;;2.46;49.14;101882.94;5065517;28;20131;-71
2022/03/05 06:30:18;;;;;;;27.40;11.05;;;;;;;2.75;48.24;101878.75;5029945;28;20064;-71
2022/03/05 06:32:46;;;;;;;28.60;11.88;;;;;;;2.80;48.68;101875.88;5043691;28;20052;-71
2022/03/05 06:35:12;;;;;;;23.45;10.80;;;;;;;3.07;47.64;101884.16;5071067;28;20086;-71
2022/03/05 06:37:39;;;;;;;26.73;10.55;;;;;;;2.86;48.57;101884.34;5044436;28;20459;-71
2022/03/05 06:40:10;;;;;;;24.25;10.25;;;;;;;2.87;47.91;101883.41;5070477;28;20079;-71
2022/03/05 06:42:37;;;;;;;21.60;11.00;;;;;;;2.91;48.05;101889.41;5069856;28;20131;-71
2022/03/05 06:45:04;;;;;;;30.60;10.27;;;;;;;3.15;47.93;101897.84;5071141;28;20132;-71
2022/03/05 06:47:31;;;;;;;26.17;11.80;;;;;;;2.95;47.54;101898.91;5070100;28;20076;-71
2022/03/05 06:49:58;;;;;;;36.65;12.40;;;;;;;2.90;48.27;101904.44;5070809;28;20072;-71
2022/03/05 06:52:25;;;;;;;33.22;11.73;;;;;;;2.97;47.79;101902.34;5052705;28;20420;-71
2022/03/05 06:54:51;;;;;;;26.95;13.05;;;;;;;2.83;48.35;101903.06;5070997;28;20127;-71
2022/03/05 06:57:19;;;;;;;26.35;13.80;;;;;;;2.10;49.76;101910.34;5076761;28;20044;-70
2022/03/05 06:59:45;;;;;;;28.92;14.70;;;;;;;2.19;50.10;101901.94;5076514;28;20068;-70
2022/03/05 07:02:11;;;;;;;34.13;14.93;;;;;;;1.84;50.54;101901.00;5071745;28;20080;-72
2022/03/05 07:04:38;;;;;;;30.02;14.85;;;;;;;1.97;50.32;101903.94;5077266;28;20037;-71
2022/03/05 07:07:05;;;;;;;31.35;15.68;;;;;;;1.93;50.44;101905.03;5072588;28;20075;-71
2022/03/05 07:09:32;;;;;;;32.15;15.00;;;;;;;1.98;50.58;101900.34;5077398;28;20121;-71
2022/03/05 07:11:59;;;;;;;34.17;15.75;;;;;;;2.75;48.51;101902.59;5076418;28;20042;-71
2022/03/05 07:14:25;;;;;;;37.13;16.08;;;;;;;2.00;50.04;101906.44;5077558;28;20075;-71
2022/03/05 07:16:52;;;;;;;37.15;17.95;;;;;;;2.48;48.65;101904.03;5077352;28;20385;-72
2022/03/05 07:19:19;;;;;;;34.95;15.65;;;;;;;2.24;49.17;101906.16;5074817;28;20123;-71
2022/03/05 07:21:45;;;;;;;31.90;15.25;;;;;;;2.43;48.86;101899.84;5077291;28;20060;-70
2022/03/05 07:24:12;;;;;;;31.05;14.80;;;;;;;3.18;46.92;101896.81;5077938;28;20049;-70
2022/03/05 07:26:39;;;;;;;32.05;14.43;;;;;;;3.34;46.74;101903.84;5077055;28;20044;-72
2022/03/05 07:29:05;;;;;;;28.27;14.10;;;;;;;4.29;44.97;101908.19;5076808;28;20048;-72
2022/03/05 07:31:32;;;;;;;34.80;13.63;;;;;;;4.78;43.23;101905.28;5076043;28;20075;-72
2022/03/05 07:33:59;;;;;;;28.63;12.35;;;;;;;5.14;42.43;101902.13;5076425;28;20048;-72
2022/03/05 07:36:25;;;;;;;24.75;11.90;;;;;;;5.57;41.10;101904.75;5076486;28;20131;-70
2022/03/05 07:38:52;;;;;;;27.45;11.32;;;;;;;5.81;40.38;101912.13;5077389;28;20378;-70
2022/03/05 07:41:18;;;;;;;19.33;10.38;;;;;;;6.10;39.61;101908.38;5073928;28;20532;-70
2022/03/05 07:43:45;;;;;;;22.10;10.10;;;;;;;6.41;38.97;101906.34;5076866;28;20461;-71
2022/03/05 07:46:11;;;;;;;29.63;12.45;;;;;;;6.47;38.98;101908.59;5077572;28;20075;-72
2022/03/05 07:48:38;;;;;;;20.58;10.10;;;;;;;6.20;38.98;101914.78;5077190;28;20117;-72
2022/03/05 07:51:04;;;;;;;24.02;10.25;;;;;;;6.16;39.08;101917.78;5076964;28;20131;-71
2022/03/05 07:53:34;;;;;;;20.15;9.98;;;;;;;5.85;39.75;101914.47;5077048;28;20107;-71
2022/03/05 07:56:00;;;;;;;30.58;11.10;;;;;;;7.08;37.62;101920.34;5076809;28;20060;-72
2022/03/05 07:58:27;;;;;;;26.38;10.80;;;;;;;7.52;36.64;101920.81;5076587;28;20067;-72
2022/03/05 08:00:53;;;;;;;22.05;10.00;;;;;;;8.00;35.35;101916.38;5069897;28;20074;-72
2022/03/05 08:03:20;;;;;;;21.10;10.35;;;;;;;8.41;34.95;101920.44;5075111;28;20049;-72
2022/03/05 08:05:46;;;;;;;19.48;9.20;;;;;;;8.73;34.64;101912.59;5075923;28;20056;-72
2022/03/05 08:08:13;;;;;;;29.45;10.20;;;;;;;7.84;35.36;101921.16;5073657;28;20598;-72
2022/03/05 08:10:39;;;;;;;23.83;9.98;;;;;;;7.99;35.31;101912.03;5074028;28;20439;-72
2022/03/05 08:13:06;;;;;;;20.38;9.60;;;;;;;7.19;36.56;101915.13;5073259;28;20098;-72
2022/03/05 08:15:32;;;;;;;20.90;9.80;;;;;;;8.66;34.11;101907.84;5072849;28;20104;-72
2022/03/05 08:18:00;;;;;;;28.10;10.50;;;;;;;8.38;34.11;101926.88;5073306;28;20046;-72
2022/03/05 08:20:29;;;;;;;27.15;11.15;;;;;;;8.01;34.68;101909.22;5073536;28;20445;-72
2022/03/05 08:22:56;;;;;;;21.85;9.75;;;;;;;9.06;33.55;101922.50;5072377;28;20119;-72
2022/03/05 08:25:22;;;;;;;20.45;9.90;;;;;;;9.45;32.79;101908.78;5072730;28;20124;-72
2022/03/05 08:27:49;;;;;;;21.15;10.43;;;;;;;10.10;31.62;101912.34;5072750;28;20128;-73
2022/03/05 08:30:17;;;;;;;23.50;9.77;;;;;;;9.25;32.49;101913.88;5072334;28;20068;-72
2022/03/05 08:32:44;;;;;;;25.60;10.25;;;;;;;8.41;33.94;101922.28;5074362;28;20119;-72
2022/03/05 08:35:12;;;;;;;22.92;9.75;;;;;;;8.79;33.69;101914.81;5073499;28;20127;-72
2022/03/05 08:37:39;;;;;;;20.45;10.32;;;;;;;8.96;32.96;101921.53;5060290;28;20567;-73
2022/03/05 08:40:08;;;;;;;18.88;9.80;;;;;;;9.57;32.27;101913.97;5072789;28;20074;-73
2022/03/05 08:42:35;;;;;;;25.38;10.65;;;;;;;9.42;32.38;101917.91;5073047;28;20211;-72
2022/03/05 08:45:06;;;;;;;23.02;9.57;;;;;;;9.09;32.64;101916.91;5072383;28;20123;-72
2022/03/05 08:47:33;;;;;;;22.73;10.55;;;;;;;9.30;32.26;101913.50;5072326;28;20052;-72
2022/03/05 08:49:59;;;;;;;22.58;10.00;;;;;;;10.45;30.65;101921.00;5071773;28;20492;-72
2022/03/05 08:52:26;;;;;;;16.13;8.98;;;;;;;9.95;31.42;101918.00;5071100;28;20079;-72
2022/03/05 08:54:52;;;;;;;21.45;10.02;;;;;;;10.52;30.55;101912.47;5072501;28;20131;-72
2022/03/05 08:57:18;;;;;;;21.10;10.80;;;;;;;10.10;30.97;101917.72;5072348;28;20131;-72
2022/03/05 08:59:45;;;;;;;23.60;10.70;;;;;;;10.95;29.94;101918.50;5072733;28;20131;-72
2022/03/05 09:02:37;;;;;;;19.48;9.77;;;;;;;11.95;28.50;101916.84;5076174;28;20123;-73
2022/03/05 09:05:04;;;;;;;;;;;;;;;11.38;28.91;101914.72;5067392;28;20119;-72
2022/03/05 09:07:31;;;;;;;20.45;10.00;;;;;;;11.61;28.43;101919.88;5071977;28;19964;-72
2022/03/05 09:09:57;;;;;;;21.17;9.95;;;;;;;10.43;30.04;101922.94;5071697;28;20045;-72
2022/03/05 09:12:24;;;;;;;19.92;10.32;;;;;;;11.43;29.01;101919.69;5070649;28;20044;-72
2022/03/05 09:14:50;;;;;;;23.30;10.57;;;;;;;10.80;29.65;101919.84;5071360;28;20453;-72
2022/03/05 09:17:17;;;;;;;22.00;10.55;;;;;;;10.63;30.20;101915.91;5071161;28;20219;-72
2022/03/05 09:19:43;;;;;;;23.63;11.38;;;;;;;10.96;29.77;101917.53;5072193;28;20445;-73
2022/03/05 09:22:11;;;;;;;21.30;10.05;;;;;;;10.97;29.39;101918.38;5071906;28;20053;-71
2022/03/05 09:24:37;;;;;;;20.67;10.73;;;;;;;11.46;28.83;101914.88;5070855;28;20072;-72
2022/03/05 09:27:05;;;;;;;27.70;10.35;;;;;;;12.02;27.97;101910.78;5071820;28;20084;-72
2022/03/05 09:29:31;;;;;;;22.95;10.55;;;;;;;12.93;26.71;101903.16;5071150;28;20091;-71
2022/03/05 09:31:58;;;;;;;18.02;10.30;;;;;;;12.90;26.29;101910.69;5072070;28;20123;-73
2022/03/05 09:34:24;;;;;;;21.55;10.38;;;;;;;11.22;28.84;101906.31;5071215;28;20040;-75
2022/03/05 09:36:51;;;;;;;22.73;11.70;;;;;;;11.70;28.31;101908.34;5070112;28;20114;-75
2022/03/05 09:39:19;;;;;;;24.15;10.85;;;;;;;12.80;26.59;101908.91;5071120;28;20044;-73
2022/03/05 09:41:45;;;;;;;20.95;11.02;;;;;;;12.55;27.17;101901.38;5070427;28;20064;-72
2022/03/05 09:44:12;;;;;;;23.30;10.75;;;;;;;13.75;25.71;101905.03;5070156;28;20083;-72
2022/03/05 09:46:38;;;;;;;23.92;10.50;;;;;;;12.49;27.14;101902.00;5070096;28;20049;-72
2022/03/05 09:49:05;;;;;;;17.05;10.15;;;;;;;13.08;26.05;101900.88;5067421;28;20496;-74
2022/03/05 09:51:31;;;;;;;23.38;10.55;;;;;;;13.02;26.17;101901.44;5070546;28;20036;-71
2022/03/05 09:53:58;;;;;;;22.40;10.55;;;;;;;13.79;25.54;101909.16;5070908;28;20044;-72
2022/03/05 09:56:24;;;;;;;18.27;10.38;;;;;;;13.62;25.54;101901.84;5067898;28;20070;-72
2022/03/05 09:58:51;;;;;;;21.05;10.25;;;;;;;13.33;25.39;101902.88;5069268;28;20068;-72
2022/03/05 10:01:18;;;;;;;19.92;10.73;;;;;;;12.03;27.38;101907.09;5069548;28;20044;-71
2022/03/05 10:03:55;;;;;;;22.13;10.35;;;;;;;13.09;26.49;101902.56;5070128;28;20067;-74
2022/03/05 10:06:23;;;;;;;20.95;9.52;;;;;;;14.45;24.68;101904.34;5051175;28;20068;-74
2022/03/05 10:08:55;;;;;;;20.55;10.00;;;;;;;13.54;25.83;101896.38;5069703;28;20136;-74
2022/03/05 10:11:22;;;;;;;;;;;;;;;14.23;24.64;101900.28;5070093;28;20542;-74
2022/03/05 10:13:49;;;;;;;17.17;9.18;;;;;;;13.02;25.79;101898.75;5060081;28;19995;-74
2022/03/05 10:16:29;;;;;;;18.77;10.18;;;;;;;11.73;27.58;101909.91;5069412;28;20064;-74
2022/03/05 10:18:57;;;;;;;20.35;9.60;;;;;;;12.43;26.73;101897.16;5070304;28;20069;-74
2022/03/05 10:21:31;;;;;;;18.70;9.52;;;;;;;13.46;25.35;101899.81;5068902;28;20044;-74
2022/03/05 10:24:06;;;;;;;19.92;9.95;;;;;;;12.80;25.81;101900.81;5069370;28;20060;-74
2022/03/05 10:26:55;;;;;;;19.02;9.27;;;;;;;12.01;26.94;101889.41;5054853;28;20098;-74
2022/03/05 10:29:23;;;;;;;19.63;9.45;;;;;;;11.42;27.98;101891.97;5067686;28;20045;-74
2022/03/05 10:32:05;;;;;;;21.15;10.30;;;;;;;11.49;27.97;101894.97;5067794;28;20048;-74
2022/03/05 10:34:53;;;;;;;18.60;9.55;;;;;;;12.84;25.93;101891.44;5069099;28;20457;-74
2022/03/05 10:37:21;;;;;;;16.92;9.18;;;;;;;12.49;26.38;101891.22;5068423;28;20452;-75
2022/03/05 10:39:49;;;;;;;18.80;9.60;;;;;;;11.37;28.22;101893.34;5067241;28;20129;-74
2022/03/05 10:42:22;;;;;;;19.30;9.25;;;;;;;11.86;27.56;101881.75;5070253;28;20106;-75
2022/03/05 10:45:08;;;;;;;18.05;9.65;;;;;;;10.84;28.25;101889.06;5046209;28;20061;-74
2022/03/05 10:47:42;;;;;;;15.60;8.82;;;;;;;10.36;28.67;101881.50;5033002;28;20044;-74
2022/03/05 10:50:14;;;;;;;16.85;9.38;;;;;;;10.49;28.95;101882.19;5035409;28;20047;-73
2022/03/05 10:52:49;;;;;;;19.30;8.88;;;;;;;10.65;28.48;101880.88;5068049;28;20055;-74
2022/03/05 10:55:18;;;;;;;16.33;8.00;;;;;;;9.63;29.61;101879.63;5068970;28;20560;-75
2022/03/05 10:58:01;;;;;;;19.77;10.02;;;;;;;10.88;28.96;101870.84;5072426;28;20126;-74
2022/03/05 11:00:29;;;;;;;19.58;9.75;;;;;;;10.02;29.38;101876.31;5071377;28;20094;-71
2022/03/05 11:02:58;;;;;;;19.75;9.15;;;;;;;10.09;28.96;101873.13;5067176;28;20114;-73
2022/03/05 11:05:25;;;;;;;20.02;9.30;;;;;;;8.63;31.63;101870.63;5070047;28;20060;-71
2022/03/05 11:07:54;;;;;;;19.90;10.02;;;;;;;9.51;31.00;101868.94;5063949;28;20048;-71
2022/03/05 11:10:24;;;;;;;22.50;10.20;;;;;;;10.28;30.13;101867.91;5070075;28;20127;-71
2022/03/05 11:12:52;;;;;;;22.40;9.05;;;;;;;11.72;28.22;101863.31;5070035;28;20064;-72
2022/03/05 11:15:19;;;;;;;21.48;9.38;;;;;;;11.80;27.46;101855.44;5060320;28;20075;-71
2022/03/05 11:17:46;;;;;;;18.40;8.88;;;;;;;13.14;26.13;101851.75;5070667;28;20102;-71
2022/03/05 11:20:14;;;;;;;16.73;8.60;;;;;;;11.79;26.73;101856.41;5069387;28;20068;-70
2022/03/05 11:22:49;;;;;;;13.68;7.32;;;;;;;12.33;25.08;101846.06;5069902;28;20140;-70
2022/03/05 11:25:19;;;;;;;18.27;7.70;;;;;;;11.01;26.69;101849.13;5070632;28;20132;-71
2022/03/05 11:27:55;;;;;;;12.82;6.53;;;;;;;11.47;26.16;101843.19;5067991;28;20064;-71
2022/03/05 11:30:22;;;;;;;12.75;6.95;;;;;;;11.62;26.60;101844.50;5069206;28;20071;-71